모두
Mundubberra Airport (Mundubbera, Queensland) YMDA 기상
There is no TAF data available at YMDA or any nearby airports.
There is no METAR data available at YMDA. Showing METAR data for YGAY (19 mi E).
최근 GAH METAR 이력(YMDA에 대한 데이터 없음)
| Date | Time (AEST) | Flight Rules | Wind Dir. | Speed | Type | Height AGL (ft) | Visibility | Temp (°C) | Temp (°F) | Dew Point (°C) | Dew Point (°F) | Rel. Humid. | Pressure | Density Altitude | Remarks |
|---|---|---|---|---|---|---|---|---|---|---|---|---|---|---|---|
| 06-9월 | 15:00 | n/a | 240° | 4 kt | Missing | 35° | 95° | 10° | 50° | 22% | 1013 mb | 2,775 ft | |||
| 06-9월 | 14:00 | n/a | 290° | 7 kt | Missing | 33° | 91° | 11° | 51° | 26% | 1014 mb | 2,506 ft | |||
| 06-9월 | 13:00 | n/a | 280° | 7 kt | Missing | 32° | 89° | 11° | 51° | 28% | 1015 mb | 2,356 ft | |||
| 06-9월 | 12:00 | n/a | 270° | 4 kt | Missing | 30° | 86° | 11° | 51° | 31% | 1016 mb | 2,087 ft | |||
| 06-9월 | 11:00 | n/a | 180° | 1 kt | Missing | 27° | 80° | 12° | 53° | 39% | 1018 mb | 1,667 ft | |||
| 06-9월 | 10:00 | n/a | 70° | 2 kt | Missing | 25° | 77° | 13° | 55° | 47% | 1019 mb | 1,398 ft | |||
| 06-9월 | 09:00 | n/a | Calm | Missing | 23° | 73° | 13° | 55° | 53% | 1019 mb | 1,158 ft | ||||
| 06-9월 | 08:00 | n/a | Calm | Missing | 18° | 64° | 15° | 59° | 83% | 1019 mb | 558 ft | ||||
| 06-9월 | 07:00 | n/a | Calm | Missing | 14° | 57° | 13° | 55° | 94% | 1018 mb | 107 ft | ||||
| 06-9월 | 06:00 | n/a | Calm | Missing | 11° | 51° | 11° | 51° | 100% | 1018 mb | -253 ft | ||||
| 06-9월 | 05:00 | n/a | Calm | Missing | 12° | 53° | 11° | 51° | 94% | 1018 mb | -133 ft | ||||
| 06-9월 | 04:00 | n/a | 200° | 3 kt | Missing | 12° | 53° | 12° | 53° | 100% | 1018 mb | -133 ft | |||
| 06-9월 | 03:00 | n/a | 250° | 2 kt | Missing | 13° | 55° | 12° | 53° | 94% | 1017 mb | 17 ft | |||
| 06-9월 | 02:00 | n/a | Calm | Missing | 14° | 57° | 13° | 55° | 94% | 1017 mb | 137 ft | ||||
| 06-9월 | 01:00 | n/a | 260° | 1 kt | Missing | 15° | 59° | 14° | 57° | 94% | 1018 mb | 227 ft | |||
| 06-9월 | 00:00 | n/a | 10° | 1 kt | Missing | 16° | 60° | 14° | 57° | 88% | 1018 mb | 347 ft | |||
| 05-9월 | 23:00 | n/a | 60° | 3 kt | Missing | 18° | 64° | 14° | 57° | 77% | 1018 mb | 587 ft | |||
| 05-9월 | 22:00 | n/a | 90° | 2 kt | Missing | 19° | 66° | 13° | 55° | 68% | 1018 mb | 707 ft | |||
| 05-9월 | 21:00 | n/a | 70° | 4 kt | Missing | 20° | 68° | 12° | 53° | 60% | 1018 mb | 827 ft | |||
| 05-9월 | 20:00 | n/a | 70° | 5 kt | Missing | 22° | 71° | 11° | 51° | 50% | 1017 mb | 1,097 ft | |||
| 05-9월 | 19:00 | n/a | 50° | 5 kt | Missing | 25° | 77° | 13° | 55° | 47% | 1017 mb | 1,457 ft | |||
| 05-9월 | 18:00 | n/a | 20° | 8 kt | Missing | 27° | 80° | 14° | 57° | 45% | 1016 mb | 1,727 ft | |||
| 05-9월 | 17:00 | n/a | Calm | Missing | 32° | 89° | 7° | 44° | 21% | 1015 mb | 2,356 ft | ||||
| 05-9월 | 16:00 | n/a | 320° | 2 kt | Missing | 33° | 91° | 7° | 44° | 20% | 1015 mb | 2,476 ft |
로그인
| 귀하의 브라우저는 지원되지 않습니다.. 브라우저를 업그레이드하세요 |
